createdAt,value
2019-05-13T00:00:23.510Z,77.00
2019-05-13T00:02:55.486Z,76.50
2019-05-13T00:05:27.812Z,76.10
2019-05-13T00:08:00.410Z,75.90
2019-05-13T00:10:34.975Z,75.70
2019-05-13T00:13:07.551Z,75.50
2019-05-13T00:15:40.320Z,75.10
2019-05-13T00:18:14.475Z,75.30
2019-05-13T00:20:46.534Z,74.80
2019-05-13T00:23:19.191Z,74.70
2019-05-13T00:25:51.579Z,74.60
2019-05-13T00:28:24.102Z,74.70
2019-05-13T00:30:56.850Z,74.10
2019-05-13T00:33:29.583Z,74.40
2019-05-13T00:36:03.787Z,74.50
2019-05-13T00:38:35.217Z,74.20
2019-05-13T00:41:07.575Z,73.70
2019-05-13T00:43:41.217Z,73.60
2019-05-13T00:46:14.206Z,73.60
2019-05-13T00:48:46.849Z,73.50
2019-05-13T00:51:19.535Z,73.60
2019-05-13T00:53:53.522Z,73.40
2019-05-13T00:56:25.496Z,73.20
2019-05-13T00:58:57.974Z,73.20
2019-05-13T01:01:39.180Z,73.20
2019-05-13T01:04:11.573Z,73.10
2019-05-13T01:06:43.851Z,73.00
2019-05-13T01:09:16.825Z,72.90
2019-05-13T01:11:49.425Z,72.70
2019-05-13T01:14:23.514Z,72.80
2019-05-13T01:16:55.216Z,72.50
2019-05-13T01:19:30.650Z,72.10
2019-05-13T01:22:03.724Z,71.70
2019-05-13T01:24:35.800Z,71.70
2019-05-13T01:27:08.003Z,71.70
2019-05-13T01:32:20.308Z,71.30
2019-05-13T01:34:53.838Z,71.40
2019-05-13T01:37:39.184Z,71.10
2019-05-13T01:40:01.308Z,71.80
2019-05-13T01:42:33.762Z,71.60
2019-05-13T01:45:16.735Z,71.40
2019-05-13T01:47:57.840Z,71.00
2019-05-13T01:50:41.084Z,70.20
2019-05-13T01:53:14.885Z,70.00
2019-05-13T01:55:47.363Z,70.70
2019-05-13T01:58:20.283Z,70.60
2019-05-13T02:01:05.126Z,70.70
2019-05-13T02:03:37.538Z,69.20
2019-05-13T02:06:14.124Z,69.50
2019-05-13T02:08:57.491Z,69.50
2019-05-13T02:11:29.744Z,68.70
2019-05-13T02:14:20.984Z,68.90
2019-05-13T02:16:54.584Z,68.20
2019-05-13T02:19:27.062Z,67.50
2019-05-13T02:22:04.215Z,67.20
2019-05-13T02:24:36.608Z,66.80
2019-05-13T02:27:08.657Z,66.60
2019-05-13T02:29:40.843Z,66.40
2019-05-13T02:32:14.010Z,66.20
2019-05-13T02:34:46.579Z,66.30
2019-05-13T02:37:22.875Z,65.90
2019-05-13T02:39:53.594Z,65.40
2019-05-13T02:42:26.067Z,65.30
2019-05-13T02:44:58.545Z,65.40
2019-05-13T02:47:33.026Z,65.30
2019-05-13T02:50:05.471Z,63.90
2019-05-13T02:52:40.159Z,63.50
2019-05-13T02:55:12.951Z,62.90
2019-05-13T02:57:44.915Z,62.50
2019-05-13T03:00:23.436Z,62.20
2019-05-13T03:02:53.896Z,62.20
2019-05-13T03:05:26.397Z,63.30
2019-05-13T03:07:58.553Z,62.00
2019-05-13T03:10:38.808Z,62.50
2019-05-13T03:13:12.611Z,62.70
2019-05-13T03:15:47.422Z,61.80
2019-05-13T03:18:33.403Z,61.30
2019-05-13T03:21:07.072Z,61.80
2019-05-13T03:23:58.199Z,60.60
2019-05-13T03:26:32.212Z,60.20
2019-05-13T03:29:07.701Z,59.70
2019-05-13T03:31:45.588Z,59.20
2019-05-13T03:34:18.921Z,59.10
2019-05-13T03:36:57.032Z,59.60
2019-05-13T03:39:27.583Z,59.70
2019-05-13T03:42:03.093Z,58.80
2019-05-13T03:44:36.182Z,58.40
2019-05-13T03:47:12.730Z,58.20
2019-05-13T03:49:48.328Z,58.20
2019-05-13T03:52:22.500Z,57.60
2019-05-13T03:55:08.213Z,58.20
2019-05-13T03:57:42.592Z,58.70
2019-05-13T04:00:15.108Z,57.90
2019-05-13T04:02:47.721Z,57.10
2019-05-13T04:05:23.053Z,57.20
2019-05-13T04:07:54.779Z,57.50
2019-05-13T04:10:27.148Z,57.30
2019-05-13T04:12:59.376Z,57.60
2019-05-13T04:15:32.925Z,57.40
2019-05-13T04:18:05.360Z,56.40
2019-05-13T04:20:38.096Z,57.20
2019-05-13T04:23:12.895Z,57.20
2019-05-13T04:25:45.055Z,57.70
2019-05-13T04:28:22.227Z,57.40
2019-05-13T04:30:55.010Z,57.10
2019-05-13T04:33:27.249Z,56.20
2019-05-13T04:36:02.459Z,55.30
2019-05-13T04:38:34.074Z,55.20
2019-05-13T04:41:06.109Z,55.00
2019-05-13T04:43:38.081Z,53.70
2019-05-13T04:46:13.577Z,54.00
2019-05-13T04:49:02.998Z,54.70
2019-05-13T04:51:35.683Z,54.60
2019-05-13T04:54:08.124Z,54.40
2019-05-13T04:56:42.154Z,55.00
2019-05-13T04:59:14.690Z,55.00
2019-05-13T05:01:55.324Z,55.60
2019-05-13T05:04:30.757Z,55.40
2019-05-13T05:07:04.884Z,54.80
2019-05-13T05:10:21.191Z,54.90
2019-05-13T05:12:37.324Z,55.10
2019-05-13T05:15:12.848Z,56.80
2019-05-13T05:18:06.410Z,54.70
2019-05-13T05:20:42.905Z,54.40
2019-05-13T05:23:21.438Z,54.70
2019-05-13T05:25:54.451Z,54.20
2019-05-13T05:28:31.929Z,56.10
2019-05-13T05:31:07.431Z,54.30
2019-05-13T05:34:06.264Z,53.70
2019-05-13T05:36:38.576Z,54.20
2019-05-13T05:39:14.285Z,53.50
2019-05-13T05:41:48.792Z,53.40
2019-05-13T05:44:24.262Z,53.70
2019-05-13T05:47:02.847Z,53.20
2019-05-13T05:49:35.638Z,53.60
2019-05-13T05:52:09.377Z,52.60
2019-05-13T05:54:42.857Z,52.50
2019-05-13T05:57:16.217Z,53.20
2019-05-13T05:59:51.047Z,52.10
2019-05-13T06:02:25.355Z,52.70
2019-05-13T06:05:02.441Z,52.60
2019-05-13T06:07:36.592Z,52.30
2019-05-13T06:10:13.478Z,51.10
2019-05-13T06:12:53.094Z,50.90
2019-05-13T06:15:26.164Z,50.30
2019-05-13T06:17:58.326Z,50.80
2019-05-13T06:20:31.720Z,51.80
2019-05-13T06:23:04.254Z,50.70
2019-05-13T06:25:43.094Z,51.10
2019-05-13T06:28:15.230Z,50.80
2019-05-13T06:31:06.779Z,51.10
2019-05-13T06:33:42.173Z,51.60
2019-05-13T06:36:14.580Z,51.90
2019-05-13T06:38:47.575Z,51.20
2019-05-13T06:41:22.064Z,51.70
2019-05-13T06:44:21.385Z,52.10
2019-05-13T06:46:53.783Z,52.20
2019-05-13T06:49:25.950Z,53.10
2019-05-13T06:51:57.939Z,53.60
2019-05-13T06:54:32.527Z,53.50
2019-05-13T06:57:05.860Z,54.60
2019-05-13T06:59:41.955Z,54.50
2019-05-13T07:02:15.451Z,55.20
2019-05-13T07:04:47.567Z,55.30
2019-05-13T07:07:21.877Z,55.20
2019-05-13T07:09:56.437Z,55.60
2019-05-13T07:12:31.251Z,55.60
2019-05-13T07:15:03.231Z,55.70
2019-05-13T07:17:35.265Z,55.80
2019-05-13T07:20:11.983Z,55.60
2019-05-13T07:22:47.241Z,54.90
2019-05-13T07:25:22.042Z,55.20
2019-05-13T07:27:54.132Z,56.20
2019-05-13T07:30:31.647Z,56.30
2019-05-13T07:33:03.387Z,57.00
2019-05-13T07:35:37.813Z,57.50
2019-05-13T07:38:11.765Z,57.60
2019-05-13T07:40:44.133Z,58.00
2019-05-13T07:43:16.695Z,58.20
2019-05-13T07:45:51.587Z,58.40
2019-05-13T07:48:27.889Z,57.60
2019-05-13T07:51:07.307Z,57.40
2019-05-13T07:53:42.397Z,58.00
2019-05-13T07:56:13.568Z,58.40
2019-05-13T07:58:53.056Z,58.70
2019-05-13T08:01:25.625Z,59.20
2019-05-13T08:03:57.674Z,59.20
2019-05-13T08:06:36.922Z,59.80
2019-05-13T08:09:28.868Z,61.00
2019-05-13T08:12:10.492Z,61.20
2019-05-13T08:14:43.209Z,61.30
2019-05-13T08:17:12.494Z,61.80
2019-05-13T08:19:44.576Z,61.70
2019-05-13T08:22:17.935Z,61.30
2019-05-13T08:24:52.007Z,61.00
2019-05-13T08:27:30.551Z,60.90
2019-05-13T08:29:57.786Z,59.80
2019-05-13T08:32:31.469Z,59.50
2019-05-13T08:35:09.014Z,59.00
2019-05-13T08:37:38.358Z,58.50
2019-05-13T08:40:12.072Z,59.10
2019-05-13T08:42:58.115Z,59.40
2019-05-13T08:45:31.449Z,59.10
2019-05-13T08:48:08.217Z,58.80
2019-05-13T08:50:43.463Z,58.60
2019-05-13T08:53:18.398Z,58.30
2019-05-13T08:55:56.144Z,58.30
2019-05-13T08:58:32.271Z,58.40
2019-05-13T09:01:12.433Z,58.30
2019-05-13T09:03:44.166Z,58.50
2019-05-13T09:06:17.547Z,58.00
2019-05-13T09:08:53.545Z,59.00
2019-05-13T09:11:23.002Z,58.40
2019-05-13T09:13:55.172Z,58.70
2019-05-13T09:16:31.979Z,59.60
2019-05-13T09:19:04.381Z,58.90
2019-05-13T09:21:42.127Z,58.90
2019-05-13T09:24:26.021Z,59.60
2019-05-13T09:26:52.891Z,59.30
2019-05-13T09:29:25.181Z,59.70
2019-05-13T09:31:57.519Z,59.60
2019-05-13T09:34:42.182Z,59.50
2019-05-13T09:37:36.823Z,58.60
2019-05-13T09:40:11.492Z,58.60
2019-05-13T09:42:49.190Z,58.60
2019-05-13T09:45:17.552Z,59.10
2019-05-13T09:47:49.475Z,58.80
2019-05-13T09:50:35.841Z,59.10
2019-05-13T09:53:05.113Z,59.00
2019-05-13T09:55:41.335Z,59.50
2019-05-13T09:58:15.588Z,59.10
2019-05-13T10:00:48.732Z,59.60
2019-05-13T10:03:29.146Z,60.00
2019-05-13T10:05:58.154Z,59.50
2019-05-13T10:08:32.629Z,59.90
2019-05-13T10:11:13.678Z,60.00
2019-05-13T10:13:45.653Z,59.70
2019-05-13T10:16:22.083Z,60.20
2019-05-13T10:18:55.293Z,60.60
2019-05-13T10:21:27.696Z,61.10
2019-05-13T10:23:59.802Z,61.50
2019-05-13T10:26:32.359Z,61.70
2019-05-13T10:29:24.291Z,61.60
2019-05-13T10:31:56.592Z,62.10
2019-05-13T10:34:28.730Z,62.40
2019-05-13T10:37:02.553Z,62.90
2019-05-13T10:39:35.327Z,63.00
2019-05-13T10:42:07.332Z,63.00
2019-05-13T10:44:42.235Z,63.50
2019-05-13T10:47:13.640Z,64.00
2019-05-13T10:49:46.491Z,64.70
2019-05-13T10:52:18.513Z,64.90
2019-05-13T10:54:52.662Z,65.10
2019-05-13T10:57:24.143Z,64.80
2019-05-13T10:59:59.717Z,65.00
2019-05-13T11:02:32.750Z,65.30
2019-05-13T11:05:03.908Z,65.20
2019-05-13T11:07:36.158Z,65.60
2019-05-13T11:10:09.680Z,66.00
2019-05-13T11:12:41.926Z,66.20
2019-05-13T11:15:14.346Z,66.40
2019-05-13T11:17:47.065Z,66.30
2019-05-13T11:20:22.086Z,66.70
2019-05-13T11:22:53.458Z,66.80
2019-05-13T11:25:25.708Z,67.10
2019-05-13T11:27:58.555Z,67.30
2019-05-13T11:30:32.097Z,67.50
2019-05-13T11:33:09.902Z,67.50
2019-05-13T11:35:58.332Z,67.30
2019-05-13T11:38:32.698Z,67.70
2019-05-13T11:41:24.132Z,68.30
2019-05-13T11:46:32.466Z,68.40
2019-05-13T11:49:03.531Z,68.50
2019-05-13T11:51:36.346Z,68.50
2019-05-13T11:54:08.776Z,69.10
2019-05-13T11:56:48.942Z,69.40
2019-05-13T11:59:14.988Z,70.00
2019-05-13T12:01:48.255Z,69.40
2019-05-13T12:04:24.172Z,69.30
2019-05-13T12:06:54.882Z,69.30
2019-05-13T12:09:27.486Z,70.00
2019-05-13T12:12:03.651Z,70.50
2019-05-13T12:14:56.582Z,70.20
2019-05-13T12:17:14.232Z,70.00
2019-05-13T12:19:44.317Z,70.00
2019-05-13T12:22:16.295Z,70.00
2019-05-13T12:24:48.692Z,70.20
2019-05-13T12:27:24.965Z,70.40
2019-05-13T12:29:57.095Z,70.20
2019-05-13T12:32:43.475Z,70.60
2019-05-13T12:35:13.799Z,70.50
2019-05-13T12:37:46.551Z,70.10
2019-05-13T12:40:23.098Z,71.10
2019-05-13T12:42:55.512Z,70.80
2019-05-13T12:45:48.280Z,71.70
2019-05-13T12:48:23.001Z,71.70
2019-05-13T12:50:54.632Z,72.90
2019-05-13T12:53:26.901Z,72.80
2019-05-13T12:56:02.840Z,73.20
2019-05-13T12:58:34.004Z,72.90
2019-05-13T13:01:06.927Z,73.90
2019-05-13T13:03:39.062Z,73.90
2019-05-13T13:06:27.086Z,74.40
2019-05-13T13:08:49.311Z,73.60
2019-05-13T13:11:19.330Z,73.80
2019-05-13T13:13:58.915Z,74.10
2019-05-13T13:16:34.038Z,74.40
2019-05-13T13:19:02.503Z,75.00
2019-05-13T13:21:37.649Z,74.70
2019-05-13T13:24:08.128Z,75.40
2019-05-13T13:26:42.407Z,75.80
2019-05-13T13:29:13.858Z,75.90
2019-05-13T13:31:46.301Z,76.30
2019-05-13T13:34:18.955Z,76.30
2019-05-13T13:36:52.672Z,75.90
2019-05-13T13:39:25.684Z,76.30
2019-05-13T13:41:58.352Z,76.80
2019-05-13T13:44:34.946Z,76.80
2019-05-13T13:47:05.740Z,76.80
2019-05-13T13:49:38.385Z,77.00
2019-05-13T13:52:16.070Z,77.10
2019-05-13T13:54:47.267Z,77.10
2019-05-13T13:57:19.291Z,77.00
2019-05-13T14:02:27.267Z,77.10
2019-05-13T14:05:04.871Z,77.20
2019-05-13T14:06:29.231Z,68.40
2019-05-13T14:07:38.460Z,77.40
2019-05-13T14:10:11.662Z,77.30
2019-05-13T14:12:43.943Z,77.60
2019-05-13T14:15:16.712Z,77.40
2019-05-13T14:17:51.409Z,77.50
2019-05-13T14:20:23.612Z,77.60
2019-05-13T14:22:58.085Z,78.00
2019-05-13T14:25:32.304Z,78.10
2019-05-13T14:28:03.465Z,78.00
2019-05-13T14:30:35.725Z,78.20
2019-05-13T14:33:08.240Z,78.90
2019-05-13T14:35:41.616Z,79.50
2019-05-13T14:38:14.316Z,78.60
2019-05-13T14:40:47.664Z,78.80
2019-05-13T14:43:22.917Z,79.90
2019-05-13T14:45:54.015Z,80.00
2019-05-13T14:48:26.480Z,78.70
2019-05-13T14:50:59.817Z,78.10
2019-05-13T14:53:32.893Z,77.30
2019-05-13T14:56:04.920Z,78.60
2019-05-13T14:58:36.904Z,79.20
2019-05-13T15:01:15.817Z,79.20
2019-05-13T15:03:42.696Z,79.80
2019-05-13T15:06:16.416Z,80.60
2019-05-13T15:08:48.441Z,81.00
2019-05-13T15:11:21.961Z,81.50
2019-05-13T15:13:55.267Z,82.20
2019-05-13T15:16:27.650Z,82.90
2019-05-13T15:19:01.496Z,83.70
2019-05-13T15:21:34.104Z,84.10
2019-05-13T15:24:06.440Z,84.10
2019-05-13T15:26:38.447Z,83.80
2019-05-13T15:29:11.397Z,84.20
2019-05-13T15:31:43.772Z,83.50
2019-05-13T15:34:15.714Z,84.00
2019-05-13T15:36:47.770Z,84.40
2019-05-13T15:39:19.633Z,84.00
2019-05-13T15:41:52.496Z,85.00
2019-05-13T15:44:24.556Z,85.30
2019-05-13T15:46:59.431Z,85.80
2019-05-13T15:49:32.372Z,85.50
2019-05-13T15:52:04.566Z,85.80
2019-05-13T15:54:36.520Z,85.80
2019-05-13T15:57:08.581Z,86.10
2019-05-13T15:59:41.494Z,86.40
2019-05-13T16:02:13.713Z,86.40
2019-05-13T16:04:52.070Z,86.50
2019-05-13T16:07:19.466Z,86.90
2019-05-13T16:09:52.620Z,87.20
2019-05-13T16:12:25.010Z,87.30
2019-05-13T16:14:57.142Z,87.40
2019-05-13T16:17:38.712Z,87.50
2019-05-13T16:20:03.832Z,87.50
2019-05-13T16:22:35.909Z,87.60
2019-05-13T16:25:10.542Z,87.70
2019-05-13T16:27:42.713Z,87.80
2019-05-13T16:30:16.302Z,87.60
2019-05-13T16:32:48.507Z,87.90
2019-05-13T16:35:21.466Z,88.20
2019-05-13T16:37:53.777Z,88.30
2019-05-13T16:40:26.028Z,88.60
2019-05-13T16:42:58.036Z,89.00
2019-05-13T16:45:31.553Z,89.10
2019-05-13T16:48:05.800Z,89.50
2019-05-13T16:50:37.953Z,89.80
2019-05-13T16:53:11.140Z,89.70
2019-05-13T16:55:43.209Z,89.70
2019-05-13T16:58:15.661Z,90.00
2019-05-13T17:00:48.502Z,90.00
2019-05-13T17:03:21.175Z,90.10
2019-05-13T17:05:53.435Z,90.00
2019-05-13T17:08:25.696Z,90.00
2019-05-13T17:10:57.443Z,90.00
2019-05-13T17:13:34.475Z,90.00
2019-05-13T17:16:06.823Z,90.20
2019-05-13T17:18:41.504Z,89.20
2019-05-13T17:21:13.204Z,89.80
2019-05-13T17:23:45.388Z,89.90
2019-05-13T17:26:17.543Z,90.00
2019-05-13T17:28:51.785Z,90.20
2019-05-13T17:31:23.724Z,89.30
2019-05-13T17:33:55.660Z,88.90
2019-05-13T17:36:27.684Z,89.80
2019-05-13T17:39:01.850Z,89.30
2019-05-13T17:41:33.451Z,88.70
2019-05-13T17:44:05.694Z,85.30
2019-05-13T17:46:37.779Z,86.80
2019-05-13T17:49:11.844Z,87.90
2019-05-13T17:51:43.567Z,89.10
2019-05-13T17:54:15.610Z,89.60
2019-05-13T17:56:48.572Z,90.00
2019-05-13T17:59:21.808Z,90.20
2019-05-13T18:01:54.084Z,89.10
2019-05-13T18:04:26.333Z,88.00
2019-05-13T18:07:01.695Z,87.50
2019-05-13T18:09:34.058Z,88.30
2019-05-13T18:12:06.439Z,88.10
2019-05-13T18:14:41.188Z,89.30
2019-05-13T18:17:13.204Z,89.70
2019-05-13T18:19:45.309Z,90.00
2019-05-13T18:22:17.357Z,88.80
2019-05-13T18:24:51.886Z,89.60
2019-05-13T18:27:23.015Z,90.20
2019-05-13T18:29:55.298Z,89.80
2019-05-13T18:32:27.171Z,90.40
2019-05-13T18:35:01.464Z,90.50
2019-05-13T18:37:51.934Z,90.60
2019-05-13T18:40:25.474Z,90.80
2019-05-13T18:43:01.971Z,91.00
2019-05-13T18:45:34.057Z,91.00
2019-05-13T18:48:06.443Z,91.10
2019-05-13T18:50:38.468Z,91.20
2019-05-13T18:53:10.836Z,91.20
2019-05-13T18:55:44.157Z,91.20
2019-05-13T18:58:17.254Z,91.40
2019-05-13T19:00:52.061Z,91.30
2019-05-13T19:03:25.710Z,91.30
2019-05-13T19:05:57.825Z,91.30
2019-05-13T19:08:32.109Z,91.20
2019-05-13T19:11:04.228Z,91.30
2019-05-13T19:13:36.470Z,91.40
2019-05-13T19:16:08.600Z,91.30
2019-05-13T19:18:42.327Z,91.10
2019-05-13T19:21:15.357Z,91.10
2019-05-13T19:23:47.698Z,91.20
2019-05-13T19:26:21.733Z,91.20
2019-05-13T19:28:54.722Z,91.30
2019-05-13T19:31:26.888Z,91.30
2019-05-13T19:34:01.498Z,91.50
2019-05-13T19:36:52.737Z,91.30
2019-05-13T19:39:26.901Z,91.00
2019-05-13T19:41:58.932Z,90.80
2019-05-13T19:44:31.513Z,91.00
2019-05-13T19:47:04.110Z,91.00
2019-05-13T19:49:37.461Z,91.20
2019-05-13T19:52:11.866Z,91.00
2019-05-13T19:54:46.544Z,90.70
2019-05-13T19:57:21.239Z,90.90
2019-05-13T19:59:55.962Z,90.90
2019-05-13T20:02:28.009Z,90.90
2019-05-13T20:05:01.220Z,90.60
2019-05-13T20:07:34.017Z,90.80
2019-05-13T20:10:08.749Z,90.70
2019-05-13T20:12:42.010Z,90.40
2019-05-13T20:15:14.930Z,90.60
2019-05-13T20:17:47.128Z,90.40
2019-05-13T20:20:21.484Z,91.10
2019-05-13T20:22:53.713Z,90.90
2019-05-13T20:25:25.780Z,90.70
2019-05-13T20:28:02.147Z,90.70
2019-05-13T20:30:33.575Z,90.80
2019-05-13T20:33:06.238Z,90.70
2019-05-13T20:35:38.272Z,90.50
2019-05-13T20:38:11.576Z,90.70
2019-05-13T20:40:45.199Z,90.70
2019-05-13T20:43:17.701Z,90.50
2019-05-13T20:45:51.781Z,90.70
2019-05-13T20:48:23.767Z,90.80
2019-05-13T20:50:56.465Z,90.90
2019-05-13T20:53:30.967Z,90.90
2019-05-13T20:56:02.904Z,91.20
2019-05-13T20:58:34.982Z,90.90
2019-05-13T21:01:07.022Z,90.80
2019-05-13T21:03:41.858Z,90.80
2019-05-13T21:06:13.773Z,90.80
2019-05-13T21:08:46.373Z,90.80
2019-05-13T21:11:18.432Z,90.90
2019-05-13T21:13:51.726Z,91.10
2019-05-13T21:16:24.535Z,91.00
2019-05-13T21:18:56.758Z,90.90
2019-05-13T21:21:31.013Z,90.80
2019-05-13T21:24:03.459Z,90.70
2019-05-13T21:26:54.777Z,90.60
2019-05-13T21:29:27.026Z,90.70
2019-05-13T21:32:01.091Z,90.60
2019-05-13T21:34:33.809Z,90.70
2019-05-13T21:37:06.326Z,90.70
2019-05-13T21:39:38.607Z,90.90
2019-05-13T21:42:11.627Z,90.80
2019-05-13T21:44:43.795Z,90.80
2019-05-13T21:47:16.147Z,90.80
2019-05-13T21:49:48.507Z,90.80
2019-05-13T21:52:23.954Z,90.80
2019-05-13T21:54:56.710Z,90.80
2019-05-13T21:57:32.927Z,90.80
2019-05-13T22:00:03.086Z,90.80
2019-05-13T22:02:35.170Z,90.80
2019-05-13T22:05:07.387Z,90.90
2019-05-13T22:07:41.925Z,90.90
2019-05-13T22:10:13.584Z,91.00
2019-05-13T22:12:45.872Z,90.90
2019-05-13T22:15:18.503Z,90.90
2019-05-13T22:17:51.307Z,90.90
2019-05-13T22:20:49.854Z,91.00
2019-05-13T22:23:16.273Z,90.90
2019-05-13T22:25:48.577Z,90.90
2019-05-13T22:28:22.135Z,90.90
2019-05-13T22:30:54.593Z,90.90
2019-05-13T22:33:26.534Z,90.80
2019-05-13T22:35:58.536Z,90.80
2019-05-13T22:38:32.419Z,90.90
2019-05-13T22:41:04.767Z,91.00
2019-05-13T22:43:51.411Z,91.10
2019-05-13T22:46:13.863Z,91.00
2019-05-13T22:48:45.128Z,91.10
2019-05-13T22:51:17.539Z,91.10
2019-05-13T22:53:49.923Z,91.10
2019-05-13T22:56:22.417Z,91.20
2019-05-13T22:58:54.393Z,91.00
2019-05-13T23:01:26.631Z,91.10
2019-05-13T23:03:59.444Z,91.10
2019-05-13T23:06:32.117Z,91.30
2019-05-13T23:09:04.250Z,91.30
2019-05-13T23:11:36.281Z,91.30
2019-05-13T23:14:10.868Z,91.60
2019-05-13T23:16:42.485Z,91.30
2019-05-13T23:19:14.547Z,91.30
2019-05-13T23:21:46.746Z,91.30
2019-05-13T23:24:21.697Z,91.30
2019-05-13T23:26:53.232Z,91.30
2019-05-13T23:29:25.914Z,91.30
2019-05-13T23:31:57.922Z,91.30
2019-05-13T23:34:31.782Z,91.30
2019-05-13T23:37:04.176Z,91.20
2019-05-13T23:39:38.814Z,91.20
2019-05-13T23:42:12.206Z,91.20
2019-05-13T23:44:46.016Z,91.20
2019-05-13T23:47:18.880Z,91.20
2019-05-13T23:49:51.499Z,91.10
2019-05-13T23:52:23.844Z,90.90
2019-05-13T23:54:56.056Z,90.70
2019-05-13T23:57:28.369Z,90.80
